sensor_id;sensor_type;location;lat;lon;timestamp;pressure;altitude;pressure_sealevel;temperature;humidity
77327;BME280;66399;52.322;20.980;2022-12-26T00:00:53;100947.80;;;4.59;82.79
77327;BME280;66399;52.322;20.980;2022-12-26T00:05:12;100941.61;;;4.60;82.95
77327;BME280;66399;52.322;20.980;2022-12-26T00:09:19;100944.02;;;4.57;82.78
77327;BME280;66399;52.322;20.980;2022-12-26T00:13:26;100948.16;;;4.52;82.75
77327;BME280;66399;52.322;20.980;2022-12-26T00:17:45;100952.11;;;4.48;82.71
77327;BME280;66399;52.322;20.980;2022-12-26T00:21:53;100945.63;;;4.46;82.80
77327;BME280;66399;52.322;20.980;2022-12-26T00:26:04;100931.58;;;4.50;82.84
77327;BME280;66399;52.322;20.980;2022-12-26T00:30:12;100934.48;;;4.53;82.89
77327;BME280;66399;52.322;20.980;2022-12-26T00:34:19;100931.91;;;4.53;82.88
77327;BME280;66399;52.322;20.980;2022-12-26T00:38:26;100935.52;;;4.51;83.12
77327;BME280;66399;52.322;20.980;2022-12-26T00:42:32;100939.45;;;4.48;83.17
77327;BME280;66399;52.322;20.980;2022-12-26T00:46:39;100934.31;;;4.49;82.98
77327;BME280;66399;52.322;20.980;2022-12-26T00:50:46;100929.16;;;4.56;83.01
77327;BME280;66399;52.322;20.980;2022-12-26T00:54:53;100931.20;;;4.62;83.00
77327;BME280;66399;52.322;20.980;2022-12-26T00:59:00;100933.56;;;4.65;82.68
77327;BME280;66399;52.322;20.980;2022-12-26T01:03:08;100931.48;;;4.71;82.72
77327;BME280;66399;52.322;20.980;2022-12-26T01:07:16;100915.41;;;4.69;82.73
77327;BME280;66399;52.322;20.980;2022-12-26T01:11:23;100916.77;;;4.69;82.65
77327;BME280;66399;52.322;20.980;2022-12-26T01:15:49;100903.06;;;4.72;82.57
77327;BME280;66399;52.322;20.980;2022-12-26T01:19:56;100885.26;;;4.76;82.40
77327;BME280;66399;52.322;20.980;2022-12-26T01:24:04;100881.46;;;4.79;82.46
77327;BME280;66399;52.322;20.980;2022-12-26T01:28:11;100892.41;;;4.79;82.59
77327;BME280;66399;52.322;20.980;2022-12-26T01:32:18;100879.61;;;4.77;82.53
77327;BME280;66399;52.322;20.980;2022-12-26T01:36:25;100871.08;;;4.72;82.73
77327;BME280;66399;52.322;20.980;2022-12-26T01:40:31;100866.79;;;4.74;82.74
77327;BME280;66399;52.322;20.980;2022-12-26T01:49:18;100865.73;;;4.79;82.56
77327;BME280;66399;52.322;20.980;2022-12-26T01:53:37;100864.36;;;4.79;82.47
77327;BME280;66399;52.322;20.980;2022-12-26T01:57:49;100860.09;;;4.78;82.59
77327;BME280;66399;52.322;20.980;2022-12-26T02:01:59;100854.80;;;4.77;82.77
77327;BME280;66399;52.322;20.980;2022-12-26T02:06:08;100845.36;;;4.80;82.57
77327;BME280;66399;52.322;20.980;2022-12-26T02:10:19;100841.42;;;4.80;82.37
77327;BME280;66399;52.322;20.980;2022-12-26T02:14:30;100840.52;;;4.86;82.63
77327;BME280;66399;52.322;20.980;2022-12-26T02:18:38;100841.54;;;4.86;82.46
77327;BME280;66399;52.322;20.980;2022-12-26T02:27:32;100821.73;;;4.81;82.73
77327;BME280;66399;52.322;20.980;2022-12-26T02:31:45;100811.79;;;4.85;82.62
77327;BME280;66399;52.322;20.980;2022-12-26T02:36:05;100805.30;;;4.84;82.82
77327;BME280;66399;52.322;20.980;2022-12-26T02:40:32;100798.98;;;4.82;82.81
77327;BME280;66399;52.322;20.980;2022-12-26T02:44:46;100786.16;;;4.80;82.86
77327;BME280;66399;52.322;20.980;2022-12-26T02:49:18;100779.17;;;4.77;83.12
77327;BME280;66399;52.322;20.980;2022-12-26T02:53:34;100769.41;;;4.78;83.04
77327;BME280;66399;52.322;20.980;2022-12-26T02:58:10;100765.48;;;4.78;83.12
77327;BME280;66399;52.322;20.980;2022-12-26T03:02:41;100771.48;;;4.77;83.05
77327;BME280;66399;52.322;20.980;2022-12-26T03:07:13;100762.59;;;4.76;83.13
77327;BME280;66399;52.322;20.980;2022-12-26T03:11:41;100756.30;;;4.71;83.09
77327;BME280;66399;52.322;20.980;2022-12-26T03:16:09;100735.59;;;4.73;83.31
77327;BME280;66399;52.322;20.980;2022-12-26T03:20:35;100742.41;;;4.75;83.06
77327;BME280;66399;52.322;20.980;2022-12-26T03:24:43;100737.61;;;4.74;83.37
77327;BME280;66399;52.322;20.980;2022-12-26T03:29:04;100724.65;;;4.72;83.45
77327;BME280;66399;52.322;20.980;2022-12-26T03:33:34;100725.02;;;4.67;83.31
77327;BME280;66399;52.322;20.980;2022-12-26T03:38:03;100703.53;;;4.61;83.82
77327;BME280;66399;52.322;20.980;2022-12-26T03:42:16;100682.16;;;4.59;84.09
77327;BME280;66399;52.322;20.980;2022-12-26T03:46:55;100676.21;;;4.56;84.36
77327;BME280;66399;52.322;20.980;2022-12-26T03:51:30;100654.16;;;4.53;84.45
77327;BME280;66399;52.322;20.980;2022-12-26T03:56:00;100642.73;;;4.50;84.83
77327;BME280;66399;52.322;20.980;2022-12-26T04:00:31;100644.98;;;4.48;84.75
77327;BME280;66399;52.322;20.980;2022-12-26T04:05:11;100635.38;;;4.51;84.78
77327;BME280;66399;52.322;20.980;2022-12-26T04:09:44;100629.70;;;4.54;84.77
77327;BME280;66399;52.322;20.980;2022-12-26T04:14:15;100631.89;;;4.58;84.50
77327;BME280;66399;52.322;20.980;2022-12-26T04:18:49;100623.52;;;4.57;84.70
77327;BME280;66399;52.322;20.980;2022-12-26T04:23:27;100605.77;;;4.54;84.79
77327;BME280;66399;52.322;20.980;2022-12-26T04:28:04;100582.48;;;4.57;84.73
77327;BME280;66399;52.322;20.980;2022-12-26T04:32:38;100574.24;;;4.60;84.53
77327;BME280;66399;52.322;20.980;2022-12-26T04:37:16;100569.09;;;4.61;84.63
77327;BME280;66399;52.322;20.980;2022-12-26T04:41:43;100555.13;;;4.56;84.66
77327;BME280;66399;52.322;20.980;2022-12-26T04:46:09;100552.23;;;4.54;84.92
77327;BME280;66399;52.322;20.980;2022-12-26T04:50:17;100550.68;;;4.56;84.78
77327;BME280;66399;52.322;20.980;2022-12-26T04:54:23;100544.83;;;4.59;84.82
77327;BME280;66399;52.322;20.980;2022-12-26T04:58:30;100526.38;;;4.57;84.91
77327;BME280;66399;52.322;20.980;2022-12-26T05:02:37;100519.77;;;4.53;84.98
77327;BME280;66399;52.322;20.980;2022-12-26T05:07:03;100503.74;;;4.49;85.35
77327;BME280;66399;52.322;20.980;2022-12-26T05:11:32;100500.11;;;4.50;85.36
77327;BME280;66399;52.322;20.980;2022-12-26T05:15:39;100490.86;;;4.52;85.41
77327;BME280;66399;52.322;20.980;2022-12-26T05:20:00;100497.34;;;4.54;85.18
77327;BME280;66399;52.322;20.980;2022-12-26T05:24:26;100479.27;;;4.51;85.43
77327;BME280;66399;52.322;20.980;2022-12-26T05:28:58;100469.90;;;4.46;85.54
77327;BME280;66399;52.322;20.980;2022-12-26T05:33:05;100454.65;;;4.48;85.66
77327;BME280;66399;52.322;20.980;2022-12-26T05:37:28;100435.65;;;4.51;85.73
77327;BME280;66399;52.322;20.980;2022-12-26T05:41:35;100431.87;;;4.52;85.68
77327;BME280;66399;52.322;20.980;2022-12-26T05:45:42;100444.70;;;4.51;85.45
77327;BME280;66399;52.322;20.980;2022-12-26T05:49:49;100460.77;;;4.52;85.60
77327;BME280;66399;52.322;20.980;2022-12-26T05:53:56;100480.80;;;4.50;85.68
77327;BME280;66399;52.322;20.980;2022-12-26T05:58:03;100473.30;;;4.48;85.62
77327;BME280;66399;52.322;20.980;2022-12-26T06:02:10;100461.08;;;4.55;85.55
77327;BME280;66399;52.322;20.980;2022-12-26T06:06:17;100448.02;;;4.59;85.48
77327;BME280;66399;52.322;20.980;2022-12-26T06:10:24;100452.96;;;4.61;85.33
77327;BME280;66399;52.322;20.980;2022-12-26T06:14:34;100451.05;;;4.63;85.38
77327;BME280;66399;52.322;20.980;2022-12-26T06:18:40;100449.17;;;4.63;85.47
77327;BME280;66399;52.322;20.980;2022-12-26T06:22:47;100449.01;;;4.63;85.11
77327;BME280;66399;52.322;20.980;2022-12-26T06:26:55;100449.59;;;4.69;85.41
77327;BME280;66399;52.322;20.980;2022-12-26T06:31:08;100427.46;;;4.73;85.25
77327;BME280;66399;52.322;20.980;2022-12-26T06:35:15;100392.08;;;4.73;84.99
77327;BME280;66399;52.322;20.980;2022-12-26T06:39:22;100376.89;;;4.70;85.10
77327;BME280;66399;52.322;20.980;2022-12-26T06:43:29;100370.27;;;4.67;85.08
77327;BME280;66399;52.322;20.980;2022-12-26T06:47:36;100376.47;;;4.64;85.16
77327;BME280;66399;52.322;20.980;2022-12-26T06:51:43;100358.50;;;4.64;85.09
77327;BME280;66399;52.322;20.980;2022-12-26T06:55:50;100370.43;;;4.67;85.10
77327;BME280;66399;52.322;20.980;2022-12-26T06:59:58;100377.09;;;4.68;85.12
77327;BME280;66399;52.322;20.980;2022-12-26T07:04:05;100385.67;;;4.66;85.11
77327;BME280;66399;52.322;20.980;2022-12-26T07:08:12;100369.24;;;4.67;85.01
77327;BME280;66399;52.322;20.980;2022-12-26T07:12:19;100341.16;;;4.69;84.86
77327;BME280;66399;52.322;20.980;2022-12-26T07:16:26;100333.91;;;4.73;84.88
77327;BME280;66399;52.322;20.980;2022-12-26T07:20:34;100340.23;;;4.75;84.92
77327;BME280;66399;52.322;20.980;2022-12-26T07:24:40;100344.48;;;4.76;84.73
77327;BME280;66399;52.322;20.980;2022-12-26T07:28:47;100329.56;;;4.78;84.70
77327;BME280;66399;52.322;20.980;2022-12-26T07:32:55;100318.71;;;4.83;84.71
77327;BME280;66399;52.322;20.980;2022-12-26T07:37:02;100320.02;;;4.86;84.71
77327;BME280;66399;52.322;20.980;2022-12-26T07:41:09;100322.89;;;4.89;84.22
77327;BME280;66399;52.322;20.980;2022-12-26T07:45:33;100356.87;;;4.94;84.49
77327;BME280;66399;52.322;20.980;2022-12-26T07:49:47;100379.20;;;4.99;84.20
77327;BME280;66399;52.322;20.980;2022-12-26T07:53:54;100353.00;;;5.00;84.11
77327;BME280;66399;52.322;20.980;2022-12-26T07:58:01;100329.47;;;5.06;84.38
77327;BME280;66399;52.322;20.980;2022-12-26T08:02:09;100316.52;;;5.12;84.18
77327;BME280;66399;52.322;20.980;2022-12-26T08:06:17;100310.04;;;5.21;83.89
77327;BME280;66399;52.322;20.980;2022-12-26T08:10:24;100308.63;;;5.23;83.91
77327;BME280;66399;52.322;20.980;2022-12-26T08:14:31;100314.51;;;5.29;83.63
77327;BME280;66399;52.322;20.980;2022-12-26T08:18:38;100318.77;;;5.29;83.66
77327;BME280;66399;52.322;20.980;2022-12-26T08:22:45;100318.55;;;5.33;83.78
77327;BME280;66399;52.322;20.980;2022-12-26T08:26:52;100306.55;;;5.42;83.57
77327;BME280;66399;52.322;20.980;2022-12-26T08:30:59;100300.56;;;5.52;83.13
77327;BME280;66399;52.322;20.980;2022-12-26T08:35:07;100281.66;;;5.55;83.33
77327;BME280;66399;52.322;20.980;2022-12-26T08:39:14;100280.24;;;5.57;83.12
77327;BME280;66399;52.322;20.980;2022-12-26T08:43:21;100289.48;;;5.58;83.39
77327;BME280;66399;52.322;20.980;2022-12-26T08:47:48;100290.04;;;5.65;83.09
77327;BME280;66399;52.322;20.980;2022-12-26T08:51:55;100277.10;;;5.78;82.86
77327;BME280;66399;52.322;20.980;2022-12-26T08:56:03;100269.70;;;5.89;82.77
77327;BME280;66399;52.322;20.980;2022-12-26T09:00:12;100260.19;;;6.02;82.96
77327;BME280;66399;52.322;20.980;2022-12-26T09:04:19;100254.20;;;6.09;82.97
77327;BME280;66399;52.322;20.980;2022-12-26T09:08:26;100257.89;;;6.20;82.76
77327;BME280;66399;52.322;20.980;2022-12-26T09:12:34;100238.35;;;6.34;82.74
77327;BME280;66399;52.322;20.980;2022-12-26T09:16:42;100240.57;;;6.42;82.65
77327;BME280;66399;52.322;20.980;2022-12-26T09:20:55;100239.52;;;6.50;82.60
77327;BME280;66399;52.322;20.980;2022-12-26T09:25:05;100239.70;;;6.57;82.35
77327;BME280;66399;52.322;20.980;2022-12-26T09:29:13;100235.08;;;6.64;81.83
77327;BME280;66399;52.322;20.980;2022-12-26T09:33:20;100228.66;;;6.66;82.02
77327;BME280;66399;52.322;20.980;2022-12-26T09:37:26;100226.23;;;6.68;81.89
77327;BME280;66399;52.322;20.980;2022-12-26T09:41:55;100213.78;;;6.71;81.51
77327;BME280;66399;52.322;20.980;2022-12-26T09:46:11;100206.13;;;6.82;81.31
77327;BME280;66399;52.322;20.980;2022-12-26T09:50:26;100208.64;;;6.91;81.23
77327;BME280;66399;52.322;20.980;2022-12-26T09:54:40;100204.70;;;6.97;81.29
77327;BME280;66399;52.322;20.980;2022-12-26T09:58:50;100204.95;;;7.08;81.14
77327;BME280;66399;52.322;20.980;2022-12-26T10:02:58;100196.29;;;7.10;81.29
77327;BME280;66399;52.322;20.980;2022-12-26T10:07:18;100208.49;;;7.16;80.89
77327;BME280;66399;52.322;20.980;2022-12-26T10:11:38;100201.09;;;7.17;80.66
77327;BME280;66399;52.322;20.980;2022-12-26T10:15:51;100192.48;;;7.24;81.00
77327;BME280;66399;52.322;20.980;2022-12-26T10:20:09;100193.52;;;7.30;80.92
77327;BME280;66399;52.322;20.980;2022-12-26T10:24:22;100186.20;;;7.33;80.64
77327;BME280;66399;52.322;20.980;2022-12-26T10:28:35;100190.75;;;7.30;80.64
77327;BME280;66399;52.322;20.980;2022-12-26T10:32:47;100185.73;;;7.31;80.93
77327;BME280;66399;52.322;20.980;2022-12-26T10:37:06;100167.86;;;7.43;80.85
77327;BME280;66399;52.322;20.980;2022-12-26T10:46:05;100158.33;;;7.75;80.67
77327;BME280;66399;52.322;20.980;2022-12-26T10:50:38;100155.36;;;7.83;80.46
77327;BME280;66399;52.322;20.980;2022-12-26T10:59:40;100133.52;;;8.00;80.32
77327;BME280;66399;52.322;20.980;2022-12-26T11:03:58;100133.45;;;8.12;80.19
77327;BME280;66399;52.322;20.980;2022-12-26T11:08:29;100127.36;;;8.26;80.17
77327;BME280;66399;52.322;20.980;2022-12-26T11:17:08;100129.52;;;8.43;80.02
77327;BME280;66399;52.322;20.980;2022-12-26T11:21:33;100129.77;;;8.56;80.18
77327;BME280;66399;52.322;20.980;2022-12-26T11:25:48;100128.12;;;8.84;79.99
77327;BME280;66399;52.322;20.980;2022-12-26T11:30:14;100124.33;;;9.08;79.91
77327;BME280;66399;52.322;20.980;2022-12-26T11:34:28;100128.16;;;9.35;79.82
77327;BME280;66399;52.322;20.980;2022-12-26T11:43:01;100114.61;;;9.70;79.28
77327;BME280;66399;52.322;20.980;2022-12-26T11:47:22;100114.56;;;9.75;79.30
77327;BME280;66399;52.322;20.980;2022-12-26T11:51:40;100110.33;;;9.87;79.14
77327;BME280;66399;52.322;20.980;2022-12-26T11:56:02;100103.70;;;10.06;78.68
77327;BME280;66399;52.322;20.980;2022-12-26T12:00:33;100099.77;;;10.18;78.43
77327;BME280;66399;52.322;20.980;2022-12-26T12:04:52;100093.94;;;10.08;78.40
77327;BME280;66399;52.322;20.980;2022-12-26T12:13:29;100086.20;;;9.73;78.62
77327;BME280;66399;52.322;20.980;2022-12-26T12:18:00;100091.11;;;9.62;78.66
77327;BME280;66399;52.322;20.980;2022-12-26T12:22:50;100096.16;;;9.65;78.85
77327;BME280;66399;52.322;20.980;2022-12-26T12:31:27;100089.84;;;10.11;78.61
77327;BME280;66399;52.322;20.980;2022-12-26T12:45:22;100104.62;;;10.59;77.87
77327;BME280;66399;52.322;20.980;2022-12-26T12:49:59;100110.10;;;10.64;77.74
77327;BME280;66399;52.322;20.980;2022-12-26T12:58:55;100118.26;;;10.63;77.32
77327;BME280;66399;52.322;20.980;2022-12-26T13:03:33;100125.25;;;10.61;77.35
77327;BME280;66399;52.322;20.980;2022-12-26T13:17:10;100126.27;;;10.65;77.12
77327;BME280;66399;52.322;20.980;2022-12-26T13:21:22;100125.86;;;10.63;76.98
77327;BME280;66399;52.322;20.980;2022-12-26T13:25:35;100123.30;;;10.62;77.05
77327;BME280;66399;52.322;20.980;2022-12-26T13:29:58;100124.53;;;10.70;77.05
77327;BME280;66399;52.322;20.980;2022-12-26T13:34:09;100125.52;;;10.75;76.76
77327;BME280;66399;52.322;20.980;2022-12-26T13:38:20;100122.20;;;10.76;76.73
77327;BME280;66399;52.322;20.980;2022-12-26T13:47:34;100128.46;;;10.74;76.60
77327;BME280;66399;52.322;20.980;2022-12-26T13:51:55;100119.20;;;10.65;76.56
77327;BME280;66399;52.322;20.980;2022-12-26T13:56:03;100125.08;;;10.73;76.58
77327;BME280;66399;52.322;20.980;2022-12-26T14:00:20;100122.90;;;10.75;76.60
77327;BME280;66399;52.322;20.980;2022-12-26T14:04:39;100118.91;;;10.76;76.44
77327;BME280;66399;52.322;20.980;2022-12-26T14:09:06;100116.67;;;10.76;76.49
77327;BME280;66399;52.322;20.980;2022-12-26T14:13:36;100109.32;;;10.74;76.46
77327;BME280;66399;52.322;20.980;2022-12-26T14:17:53;100116.82;;;10.72;76.30
77327;BME280;66399;52.322;20.980;2022-12-26T14:22:10;100133.33;;;10.74;76.44
77327;BME280;66399;52.322;20.980;2022-12-26T14:26:30;100136.73;;;10.75;76.41
77327;BME280;66399;52.322;20.980;2022-12-26T14:30:53;100132.06;;;10.75;76.30
77327;BME280;66399;52.322;20.980;2022-12-26T14:35:09;100127.63;;;10.74;76.26
77327;BME280;66399;52.322;20.980;2022-12-26T14:39:27;100121.23;;;10.70;76.30
77327;BME280;66399;52.322;20.980;2022-12-26T14:43:39;100117.23;;;10.66;76.38
77327;BME280;66399;52.322;20.980;2022-12-26T14:47:48;100122.15;;;10.69;76.28
77327;BME280;66399;52.322;20.980;2022-12-26T14:51:55;100121.20;;;10.71;76.06
77327;BME280;66399;52.322;20.980;2022-12-26T14:56:33;100121.49;;;10.68;76.06
77327;BME280;66399;52.322;20.980;2022-12-26T15:00:43;100126.36;;;10.64;76.12
77327;BME280;66399;52.322;20.980;2022-12-26T15:05:05;100122.13;;;10.61;76.13
77327;BME280;66399;52.322;20.980;2022-12-26T15:09:27;100117.36;;;10.60;76.19
77327;BME280;66399;52.322;20.980;2022-12-26T15:14:16;100120.81;;;10.64;76.13
77327;BME280;66399;52.322;20.980;2022-12-26T15:18:59;100128.32;;;10.66;76.12
77327;BME280;66399;52.322;20.980;2022-12-26T15:23:40;100133.85;;;10.66;76.20
77327;BME280;66399;52.322;20.980;2022-12-26T15:28:15;100122.95;;;10.62;76.39
77327;BME280;66399;52.322;20.980;2022-12-26T15:32:33;100116.63;;;10.57;76.44
77327;BME280;66399;52.322;20.980;2022-12-26T15:36:44;100113.01;;;10.56;76.62
77327;BME280;66399;52.322;20.980;2022-12-26T15:41:04;100109.81;;;10.54;76.63
77327;BME280;66399;52.322;20.980;2022-12-26T15:45:27;100112.21;;;10.50;76.68
77327;BME280;66399;52.322;20.980;2022-12-26T15:49:58;100123.63;;;10.42;77.10
77327;BME280;66399;52.322;20.980;2022-12-26T15:54:22;100123.14;;;10.37;77.22
77327;BME280;66399;52.322;20.980;2022-12-26T15:58:51;100123.61;;;10.38;77.37
77327;BME280;66399;52.322;20.980;2022-12-26T16:03:15;100121.15;;;10.39;77.39
77327;BME280;66399;52.322;20.980;2022-12-26T16:07:34;100115.73;;;10.36;77.53
77327;BME280;66399;52.322;20.980;2022-12-26T16:11:51;100117.54;;;10.31;77.66
77327;BME280;66399;52.322;20.980;2022-12-26T16:15:59;100120.93;;;10.28;77.78
77327;BME280;66399;52.322;20.980;2022-12-26T16:20:19;100123.76;;;10.31;77.82
77327;BME280;66399;52.322;20.980;2022-12-26T16:24:47;100122.98;;;10.32;77.97
77327;BME280;66399;52.322;20.980;2022-12-26T16:28:57;100116.73;;;10.29;78.23
77327;BME280;66399;52.322;20.980;2022-12-26T16:33:05;100110.29;;;10.26;78.33
77327;BME280;66399;52.322;20.980;2022-12-26T16:37:16;100106.86;;;10.22;78.39
77327;BME280;66399;52.322;20.980;2022-12-26T16:41:25;100117.12;;;10.28;78.46
77327;BME280;66399;52.322;20.980;2022-12-26T16:45:34;100123.74;;;10.31;78.30
77327;BME280;66399;52.322;20.980;2022-12-26T16:49:43;100120.20;;;10.33;78.29
77327;BME280;66399;52.322;20.980;2022-12-26T16:53:51;100115.25;;;10.32;78.23
77327;BME280;66399;52.322;20.980;2022-12-26T16:58:00;100108.64;;;10.29;78.33
77327;BME280;66399;52.322;20.980;2022-12-26T17:02:15;100100.49;;;10.25;78.21
77327;BME280;66399;52.322;20.980;2022-12-26T17:06:27;100090.13;;;10.25;78.33
77327;BME280;66399;52.322;20.980;2022-12-26T17:10:36;100095.25;;;10.23;78.47
77327;BME280;66399;52.322;20.980;2022-12-26T17:14:46;100097.69;;;10.18;78.67
77327;BME280;66399;52.322;20.980;2022-12-26T17:18:55;100097.07;;;10.12;79.11
77327;BME280;66399;52.322;20.980;2022-12-26T17:32:24;100095.26;;;10.10;79.34
77327;BME280;66399;52.322;20.980;2022-12-26T17:36:33;100086.50;;;10.09;79.30
77327;BME280;66399;52.322;20.980;2022-12-26T17:41:03;100085.48;;;10.04;79.53
77327;BME280;66399;52.322;20.980;2022-12-26T17:45:16;100092.85;;;9.97;79.63
77327;BME280;66399;52.322;20.980;2022-12-26T17:49:23;100093.77;;;9.91;79.77
77327;BME280;66399;52.322;20.980;2022-12-26T17:53:31;100099.53;;;9.93;80.03
77327;BME280;66399;52.322;20.980;2022-12-26T17:57:38;100109.83;;;9.94;80.03
77327;BME280;66399;52.322;20.980;2022-12-26T18:01:45;100115.51;;;9.95;80.12
77327;BME280;66399;52.322;20.980;2022-12-26T18:05:53;100117.96;;;9.94;80.46
77327;BME280;66399;52.322;20.980;2022-12-26T18:10:02;100121.77;;;9.94;80.46
77327;BME280;66399;52.322;20.980;2022-12-26T18:14:13;100118.69;;;9.93;80.42
77327;BME280;66399;52.322;20.980;2022-12-26T18:18:24;100120.41;;;9.98;80.58
77327;BME280;66399;52.322;20.980;2022-12-26T18:22:32;100118.88;;;9.97;80.49
77327;BME280;66399;52.322;20.980;2022-12-26T18:26:41;100119.23;;;9.97;80.59
77327;BME280;66399;52.322;20.980;2022-12-26T18:30:49;100125.81;;;10.00;80.60
77327;BME280;66399;52.322;20.980;2022-12-26T18:34:56;100125.55;;;10.03;80.45
77327;BME280;66399;52.322;20.980;2022-12-26T18:39:04;100126.45;;;10.02;80.58
77327;BME280;66399;52.322;20.980;2022-12-26T18:43:11;100123.73;;;9.96;80.52
77327;BME280;66399;52.322;20.980;2022-12-26T18:47:19;100129.32;;;9.91;80.61
77327;BME280;66399;52.322;20.980;2022-12-26T18:51:26;100128.45;;;9.95;80.63
77327;BME280;66399;52.322;20.980;2022-12-26T18:55:33;100130.08;;;9.98;80.49
77327;BME280;66399;52.322;20.980;2022-12-26T18:59:40;100133.98;;;9.99;80.44
77327;BME280;66399;52.322;20.980;2022-12-26T19:03:46;100131.01;;;9.95;80.51
77327;BME280;66399;52.322;20.980;2022-12-26T19:07:53;100131.50;;;9.92;80.41
77327;BME280;66399;52.322;20.980;2022-12-26T19:12:00;100129.17;;;9.89;80.50
77327;BME280;66399;52.322;20.980;2022-12-26T19:16:07;100137.93;;;9.86;80.44
77327;BME280;66399;52.322;20.980;2022-12-26T19:20:19;100134.75;;;9.88;80.47
77327;BME280;66399;52.322;20.980;2022-12-26T19:24:26;100137.35;;;9.88;80.60
77327;BME280;66399;52.322;20.980;2022-12-26T19:28:33;100143.23;;;9.88;80.68
77327;BME280;66399;52.322;20.980;2022-12-26T19:32:40;100151.80;;;9.84;80.66
77327;BME280;66399;52.322;20.980;2022-12-26T19:36:48;100156.72;;;9.82;80.85
77327;BME280;66399;52.322;20.980;2022-12-26T19:41:01;100164.90;;;9.85;80.87
77327;BME280;66399;52.322;20.980;2022-12-26T19:45:10;100168.52;;;9.85;80.90
77327;BME280;66399;52.322;20.980;2022-12-26T19:49:17;100187.55;;;9.83;80.86
77327;BME280;66399;52.322;20.980;2022-12-26T19:53:23;100185.69;;;9.74;81.03
77327;BME280;66399;52.322;20.980;2022-12-26T19:57:30;100186.94;;;9.63;81.23
77327;BME280;66399;52.322;20.980;2022-12-26T20:01:37;100185.71;;;9.54;81.32
77327;BME280;66399;52.322;20.980;2022-12-26T20:05:45;100184.59;;;9.56;81.19
77327;BME280;66399;52.322;20.980;2022-12-26T20:09:52;100187.89;;;9.60;81.14
77327;BME280;66399;52.322;20.980;2022-12-26T20:13:59;100187.90;;;9.65;81.02
77327;BME280;66399;52.322;20.980;2022-12-26T20:18:07;100187.33;;;9.61;80.97
77327;BME280;66399;52.322;20.980;2022-12-26T20:22:19;100195.45;;;9.52;81.09
77327;BME280;66399;52.322;20.980;2022-12-26T20:26:26;100210.08;;;9.52;81.22
77327;BME280;66399;52.322;20.980;2022-12-26T20:30:33;100216.65;;;9.62;81.00
77327;BME280;66399;52.322;20.980;2022-12-26T20:34:40;100213.48;;;9.73;81.07
77327;BME280;66399;52.322;20.980;2022-12-26T20:38:50;100214.38;;;9.76;80.90
77327;BME280;66399;52.322;20.980;2022-12-26T20:42:57;100224.15;;;9.73;80.90
77327;BME280;66399;52.322;20.980;2022-12-26T20:47:04;100225.73;;;9.68;80.86
77327;BME280;66399;52.322;20.980;2022-12-26T20:51:13;100227.46;;;9.63;80.93
77327;BME280;66399;52.322;20.980;2022-12-26T20:55:20;100230.29;;;9.66;81.05
77327;BME280;66399;52.322;20.980;2022-12-26T20:59:27;100236.33;;;9.71;80.89
77327;BME280;66399;52.322;20.980;2022-12-26T21:03:35;100242.25;;;9.74;80.68
77327;BME280;66399;52.322;20.980;2022-12-26T21:07:42;100242.78;;;9.73;80.81
77327;BME280;66399;52.322;20.980;2022-12-26T21:11:49;100251.77;;;9.68;80.87
77327;BME280;66399;52.322;20.980;2022-12-26T21:15:56;100253.64;;;9.64;80.87
77327;BME280;66399;52.322;20.980;2022-12-26T21:20:03;100253.70;;;9.62;80.84
77327;BME280;66399;52.322;20.980;2022-12-26T21:24:14;100250.98;;;9.61;80.78
77327;BME280;66399;52.322;20.980;2022-12-26T21:28:21;100248.08;;;9.61;80.79
77327;BME280;66399;52.322;20.980;2022-12-26T21:32:27;100249.26;;;9.61;80.69
77327;BME280;66399;52.322;20.980;2022-12-26T21:36:35;100247.77;;;9.59;80.75
77327;BME280;66399;52.322;20.980;2022-12-26T21:40:43;100247.11;;;9.58;80.95
77327;BME280;66399;52.322;20.980;2022-12-26T21:44:50;100243.34;;;9.57;80.78
77327;BME280;66399;52.322;20.980;2022-12-26T21:48:57;100237.27;;;9.49;80.82
77327;BME280;66399;52.322;20.980;2022-12-26T21:53:05;100228.83;;;9.35;80.79
77327;BME280;66399;52.322;20.980;2022-12-26T21:57:12;100239.13;;;9.16;80.95
77327;BME280;66399;52.322;20.980;2022-12-26T22:01:20;100245.83;;;9.02;81.23
77327;BME280;66399;52.322;20.980;2022-12-26T22:05:29;100249.86;;;8.90;81.59
77327;BME280;66399;52.322;20.980;2022-12-26T22:09:36;100241.02;;;8.81;81.73
77327;BME280;66399;52.322;20.980;2022-12-26T22:13:43;100236.16;;;8.72;82.07
77327;BME280;66399;52.322;20.980;2022-12-26T22:17:51;100235.06;;;8.63;82.05
77327;BME280;66399;52.322;20.980;2022-12-26T22:21:58;100232.82;;;8.53;82.16
77327;BME280;66399;52.322;20.980;2022-12-26T22:26:06;100234.73;;;8.42;82.28
77327;BME280;66399;52.322;20.980;2022-12-26T22:30:13;100232.46;;;8.31;82.73
77327;BME280;66399;52.322;20.980;2022-12-26T22:34:20;100224.02;;;8.26;82.81
77327;BME280;66399;52.322;20.980;2022-12-26T22:38:30;100212.20;;;8.19;82.64
77327;BME280;66399;52.322;20.980;2022-12-26T22:42:37;100217.12;;;8.16;82.78
77327;BME280;66399;52.322;20.980;2022-12-26T22:46:43;100228.89;;;8.08;83.08
77327;BME280;66399;52.322;20.980;2022-12-26T22:50:52;100240.29;;;8.06;83.31
77327;BME280;66399;52.322;20.980;2022-12-26T22:54:59;100239.05;;;8.24;83.43
77327;BME280;66399;52.322;20.980;2022-12-26T22:59:06;100237.51;;;8.41;83.06
77327;BME280;66399;52.322;20.980;2022-12-26T23:03:13;100250.00;;;8.49;82.88
77327;BME280;66399;52.322;20.980;2022-12-26T23:07:21;100248.46;;;8.49;82.89
77327;BME280;66399;52.322;20.980;2022-12-26T23:11:32;100246.88;;;8.49;82.97
77327;BME280;66399;52.322;20.980;2022-12-26T23:15:51;100242.98;;;8.53;82.67